Time;durP1;ratioP1;P1;durP2;ratioP2;P2;SDS_P1;SDS_P2;PMS_P1;PMS_P2;Temp;Humidity;BMP_temperature;BMP_pressure;BME280_temperature;BME280_humidity;BME280_pressure;Samples;Min_cycle;Max_cycle;Signal;HPM_P1;HPM_P2
2023/07/11 00:01:13;;;;;;;8.73;3.75;;;19.70;70.10;;;;;;5108246;27;20039;-75
2023/07/11 00:03:39;;;;;;;9.95;4.10;;;19.70;70.10;;;;;;5109544;28;20397;-77
2023/07/11 00:06:07;;;;;;;8.02;3.85;;;19.70;70.00;;;;;;5109170;28;20451;-75
2023/07/11 00:08:33;;;;;;;9.18;4.32;;;19.60;70.00;;;;;;5117137;27;20035;-75
2023/07/11 00:10:59;;;;;;;9.35;3.50;;;19.60;69.80;;;;;;5089139;28;20063;-75
2023/07/11 00:13:24;;;;;;;9.60;4.10;;;19.60;69.90;;;;;;5108051;28;20031;-75
2023/07/11 00:16:00;;;;;;;11.20;4.55;;;19.50;69.90;;;;;;5108583;27;20031;-75
2023/07/11 00:18:26;;;;;;;7.60;3.83;;;19.50;69.90;;;;;;5104924;28;20023;-75
2023/07/11 00:20:52;;;;;;;9.82;3.72;;;19.50;69.90;;;;;;5100045;27;20096;-76
2023/07/11 00:23:17;;;;;;;11.77;4.95;;;19.50;70.10;;;;;;5111356;27;20491;-75
2023/07/11 00:25:43;;;;;;;10.65;4.68;;;19.40;70.20;;;;;;5115581;27;20059;-76
2023/07/11 00:28:08;;;;;;;10.60;4.70;;;19.40;70.20;;;;;;5114463;27;20456;-75
2023/07/11 00:30:34;;;;;;;11.65;4.55;;;19.40;70.30;;;;;;5115137;27;20492;-75
2023/07/11 00:33:00;;;;;;;11.88;4.47;;;19.40;70.30;;;;;;5108474;28;20038;-75
2023/07/11 00:35:25;;;;;;;10.98;4.88;;;19.40;70.40;;;;;;5088932;28;20077;-75
2023/07/11 00:37:51;;;;;;;8.88;4.35;;;19.40;70.40;;;;;;5117208;27;20400;-75
2023/07/11 00:40:17;;;;;;;11.27;4.35;;;19.40;70.50;;;;;;5108254;27;20055;-76
2023/07/11 00:42:42;;;;;;;10.75;4.32;;;19.40;70.50;;;;;;5108002;28;20036;-76
2023/07/11 00:45:49;;;;;;;11.57;4.60;;;19.40;70.40;;;;;;5107662;28;20035;-75
2023/07/11 00:48:21;;;;;;;9.57;4.82;;;19.40;70.50;;;;;;5093081;27;20031;-75
2023/07/11 00:50:47;;;;;;;10.98;4.53;;;19.40;70.40;;;;;;5110460;27;20028;-76
2023/07/11 00:53:13;;;;;;;9.38;4.78;;;19.30;70.40;;;;;;5108468;27;20039;-76
2023/07/11 00:55:40;;;;;;;9.98;4.32;;;19.20;70.70;;;;;;5107928;28;20296;-75
2023/07/11 00:58:06;;;;;;;11.18;5.05;;;19.20;71.00;;;;;;5107213;27;20027;-74
2023/07/11 01:00:32;;;;;;;11.68;4.32;;;19.10;71.20;;;;;;5107152;27;20031;-73
2023/07/11 01:02:58;;;;;;;11.15;4.68;;;19.10;71.60;;;;;;5108405;28;20034;-77
2023/07/11 01:05:24;;;;;;;11.10;5.43;;;19.10;71.70;;;;;;5107892;28;20038;-74
2023/07/11 01:07:49;;;;;;;13.70;5.47;;;19.00;71.80;;;;;;5106845;28;20392;-73
2023/07/11 01:10:15;;;;;;;13.07;5.90;;;19.00;71.90;;;;;;5107437;28;20035;-74
2023/07/11 01:12:48;;;;;;;10.32;4.97;;;19.00;71.90;;;;;;5107683;28;20534;-74
2023/07/11 01:15:14;;;;;;;14.00;5.78;;;18.90;72.20;;;;;;5107750;28;20024;-73
2023/07/11 01:17:40;;;;;;;10.25;4.97;;;19.00;72.30;;;;;;5087912;28;20564;-75
2023/07/11 01:20:08;;;;;;;12.63;4.88;;;19.00;72.40;;;;;;5106712;28;20463;-74
2023/07/11 01:22:36;;;;;;;10.88;5.07;;;19.00;72.70;;;;;;5107381;28;20019;-74
2023/07/11 01:25:09;;;;;;;14.15;5.55;;;19.00;72.70;;;;;;5089381;28;20028;-75
2023/07/11 01:27:36;;;;;;;11.52;4.75;;;19.10;72.60;;;;;;5087661;27;20020;-75
2023/07/11 01:30:04;;;;;;;10.63;5.15;;;19.10;72.50;;;;;;5113771;27;20503;-75
2023/07/11 01:32:30;;;;;;;12.50;5.18;;;19.10;72.60;;;;;;5104415;28;20091;-75
2023/07/11 01:34:56;;;;;;;17.48;6.32;;;19.10;72.60;;;;;;5107625;28;20050;-77
2023/07/11 01:37:21;;;;;;;11.48;5.55;;;19.10;72.50;;;;;;5107249;28;20468;-75
2023/07/11 01:39:47;;;;;;;10.88;5.30;;;19.00;72.50;;;;;;5106951;28;20691;-74
2023/07/11 01:42:13;;;;;;;12.35;5.50;;;19.10;72.50;;;;;;5106057;27;20035;-74
2023/07/11 01:44:38;;;;;;;13.35;5.10;;;19.10;72.60;;;;;;5105131;27;20020;-74
2023/07/11 01:47:06;;;;;;;11.25;5.05;;;19.00;72.70;;;;;;5105819;27;20030;-75
2023/07/11 01:49:32;;;;;;;10.63;5.32;;;19.00;72.50;;;;;;5111251;27;20054;-75
2023/07/11 01:52:08;;;;;;;12.40;5.70;;;19.00;72.50;;;;;;5109253;27;20130;-76
2023/07/11 01:54:33;;;;;;;10.82;5.22;;;19.00;72.50;;;;;;5113893;27;20023;-75
2023/07/11 01:56:59;;;;;;;12.93;4.70;;;19.00;72.80;;;;;;5106732;28;20051;-77
2023/07/11 01:59:27;;;;;;;12.63;5.30;;;19.00;72.50;;;;;;5088876;28;20100;-74
2023/07/11 02:01:52;;;;;;;10.07;4.82;;;19.00;72.50;;;;;;5105357;27;20063;-74
2023/07/11 02:04:21;;;;;;;12.00;5.05;;;19.00;72.40;;;;;;5106657;28;20302;-74
2023/07/11 02:06:51;;;;;;;11.52;5.20;;;19.00;72.40;;;;;;5076284;28;20406;-74
2023/07/11 02:09:18;;;;;;;11.20;5.05;;;19.00;72.30;;;;;;5088487;28;20488;-74
2023/07/11 02:11:44;;;;;;;11.52;4.93;;;19.00;72.10;;;;;;5105660;27;20027;-75
2023/07/11 02:14:13;;;;;;;10.18;4.82;;;19.10;71.90;;;;;;5106806;28;20043;-76
2023/07/11 02:16:39;;;;;;;9.57;4.80;;;19.10;71.80;;;;;;5105591;28;20035;-75
2023/07/11 02:19:04;;;;;;;11.25;4.90;;;19.10;71.70;;;;;;5106535;28;20027;-76
2023/07/11 02:21:30;;;;;;;10.45;4.95;;;19.10;71.60;;;;;;5093873;28;20027;-75
2023/07/11 02:23:56;;;;;;;10.00;4.63;;;19.10;71.50;;;;;;5089217;28;20020;-74
2023/07/11 02:26:25;;;;;;;10.18;4.72;;;19.10;71.30;;;;;;5104307;28;20081;-73
2023/07/11 02:28:51;;;;;;;11.70;4.50;;;19.10;71.20;;;;;;5107484;27;20063;-74
2023/07/11 02:31:16;;;;;;;8.68;3.92;;;19.10;71.10;;;;;;5106179;28;20487;-74
2023/07/11 02:33:42;;;;;;;13.10;5.07;;;19.00;71.10;;;;;;5106091;28;20074;-73
2023/07/11 02:36:08;;;;;;;10.82;4.50;;;19.10;70.80;;;;;;5104969;28;20096;-74
2023/07/11 02:38:33;;;;;;;11.52;4.93;;;19.10;70.60;;;;;;5106201;28;20023;-74
2023/07/11 02:40:59;;;;;;;8.63;4.40;;;19.00;70.70;;;;;;5106022;27;20130;-74
2023/07/11 02:43:24;;;;;;;9.73;4.38;;;19.00;70.80;;;;;;5094439;28;20027;-74
2023/07/11 02:45:51;;;;;;;12.00;4.80;;;19.10;70.80;;;;;;5086938;28;20028;-74
2023/07/11 02:48:17;;;;;;;9.57;4.05;;;19.10;70.90;;;;;;5107469;27;20015;-74
2023/07/11 02:50:43;;;;;;;11.18;4.05;;;19.10;70.80;;;;;;5114587;27;20398;-74
2023/07/11 02:53:08;;;;;;;11.40;4.45;;;19.10;70.90;;;;;;5106189;28;20016;-74
2023/07/11 02:55:39;;;;;;;11.15;4.50;;;19.10;71.00;;;;;;5105863;28;20429;-75
2023/07/11 02:58:04;;;;;;;13.10;4.20;;;19.00;71.10;;;;;;5105482;28;20016;-75
2023/07/11 03:00:30;;;;;;;10.50;4.13;;;19.00;71.30;;;;;;5105221;28;20478;-74
2023/07/11 03:02:56;;;;;;;10.18;4.15;;;18.90;71.60;;;;;;5088007;28;20038;-76
2023/07/11 03:05:22;;;;;;;12.02;4.93;;;19.00;71.70;;;;;;5105887;28;20123;-76
2023/07/11 03:07:47;;;;;;;12.68;5.63;;;18.90;71.90;;;;;;5105647;28;20023;-74
2023/07/11 03:10:13;;;;;;;8.88;4.32;;;18.90;72.30;;;;;;5105075;28;20405;-75
2023/07/11 03:12:39;;;;;;;10.52;4.70;;;18.90;72.50;;;;;;5087162;28;20114;-74
2023/07/11 03:15:05;;;;;;;11.27;4.85;;;18.90;72.50;;;;;;5087536;27;20088;-75
2023/07/11 03:17:32;;;;;;;10.30;4.90;;;18.80;72.60;;;;;;5088119;28;20083;-76
2023/07/11 03:19:57;;;;;;;11.45;4.50;;;18.80;72.80;;;;;;5104691;27;20460;-75
2023/07/11 03:22:23;;;;;;;10.52;4.63;;;18.80;73.00;;;;;;5106575;28;20084;-74
2023/07/11 03:24:48;;;;;;;14.85;5.15;;;18.80;73.10;;;;;;5105615;28;20455;-74
2023/07/11 03:27:14;;;;;;;10.52;5.03;;;18.80;73.30;;;;;;5112090;28;20426;-75
2023/07/11 03:29:40;;;;;;;14.73;5.65;;;18.70;73.50;;;;;;5104653;28;20035;-75
2023/07/11 03:32:07;;;;;;;13.70;5.28;;;18.70;73.80;;;;;;5104502;28;20523;-74
2023/07/11 03:34:33;;;;;;;17.88;5.20;;;18.70;73.90;;;;;;5105704;28;20020;-75
2023/07/11 03:36:59;;;;;;;17.60;5.90;;;18.70;74.00;;;;;;5105543;28;20036;-77
2023/07/11 03:39:25;;;;;;;11.82;4.97;;;18.70;74.10;;;;;;5105945;28;20027;-77
2023/07/11 03:41:51;;;;;;;13.85;5.45;;;18.70;74.10;;;;;;5092778;28;20034;-75
2023/07/11 03:44:16;;;;;;;10.65;5.40;;;18.70;74.10;;;;;;5105586;28;20020;-75
2023/07/11 03:46:43;;;;;;;10.57;5.20;;;18.60;74.10;;;;;;5107187;28;20475;-75
2023/07/11 03:49:09;;;;;;;13.98;5.40;;;18.70;74.10;;;;;;5109428;28;20034;-76
2023/07/11 03:51:35;;;;;;;13.40;5.10;;;18.70;74.20;;;;;;5108567;27;20036;-75
2023/07/11 03:54:01;;;;;;;11.60;5.22;;;18.70;74.10;;;;;;5108783;27;20046;-74
2023/07/11 03:56:27;;;;;;;13.10;5.38;;;18.70;73.90;;;;;;5108967;27;20403;-74
2023/07/11 03:58:53;;;;;;;13.80;4.72;;;18.70;74.00;;;;;;5109788;28;20344;-74
2023/07/11 04:01:19;;;;;;;9.68;4.47;;;18.70;73.90;;;;;;5108372;28;20042;-74
2023/07/11 04:03:45;;;;;;;10.68;4.82;;;18.80;73.70;;;;;;5108334;28;20027;-74
2023/07/11 04:06:10;;;;;;;14.60;4.38;;;18.80;73.70;;;;;;5108746;28;20023;-75
2023/07/11 04:08:36;;;;;;;11.07;4.15;;;18.80;73.80;;;;;;5109243;28;20020;-74
2023/07/11 04:11:02;;;;;;;11.63;4.28;;;18.80;73.70;;;;;;5108534;28;20023;-73
2023/07/11 04:13:28;;;;;;;10.45;4.28;;;18.90;73.60;;;;;;5109205;28;20480;-74
2023/07/11 04:15:54;;;;;;;12.63;4.30;;;18.90;73.60;;;;;;5108321;28;20430;-73
2023/07/11 04:18:19;;;;;;;10.95;3.83;;;19.00;73.20;;;;;;5108732;28;20025;-75
2023/07/11 04:20:48;;;;;;;10.50;4.25;;;19.00;73.10;;;;;;5108914;27;20089;-75
2023/07/11 04:23:14;;;;;;;10.05;4.25;;;19.10;73.10;;;;;;5108311;28;20099;-74
2023/07/11 04:25:40;;;;;;;11.50;4.03;;;19.10;73.00;;;;;;5107968;28;20094;-74
2023/07/11 04:28:06;;;;;;;10.43;4.53;;;19.10;73.00;;;;;;5091883;28;20019;-74
2023/07/11 04:30:32;;;;;;;11.10;4.47;;;19.10;72.80;;;;;;5108223;28;20044;-74
2023/07/11 04:32:58;;;;;;;10.65;4.40;;;19.10;72.80;;;;;;5108481;28;20031;-74
2023/07/11 04:35:23;;;;;;;11.68;4.22;;;19.20;72.70;;;;;;5089863;28;20039;-74
2023/07/11 04:37:49;;;;;;;12.05;4.30;;;19.30;72.60;;;;;;5112638;27;20031;-74
2023/07/11 04:40:16;;;;;;;10.60;4.13;;;19.30;72.40;;;;;;5108479;27;20088;-75
2023/07/11 04:42:41;;;;;;;11.55;4.28;;;19.40;72.50;;;;;;5108156;28;20498;-75
2023/07/11 04:45:08;;;;;;;10.25;4.50;;;19.40;72.40;;;;;;5108304;27;20051;-75
2023/07/11 04:47:34;;;;;;;12.07;4.38;;;19.50;72.30;;;;;;5106533;27;20027;-75
2023/07/11 04:50:00;;;;;;;13.68;4.32;;;19.50;72.30;;;;;;5097504;27;20468;-75
2023/07/11 04:52:26;;;;;;;9.52;5.07;;;19.60;72.20;;;;;;5108039;28;20105;-75
2023/07/11 04:54:52;;;;;;;16.13;4.90;;;19.60;72.10;;;;;;5108412;28;20034;-75
2023/07/11 04:57:18;;;;;;;10.65;4.82;;;19.70;72.00;;;;;;5106334;28;20044;-75
2023/07/11 04:59:44;;;;;;;16.67;5.22;;;19.70;72.00;;;;;;5107498;27;20546;-75
2023/07/11 05:02:10;;;;;;;12.45;6.05;;;19.80;71.90;;;;;;5107881;27;20036;-74
2023/07/11 05:04:38;;;;;;;17.02;5.20;;;19.70;71.90;;;;;;5107948;28;20039;-75
2023/07/11 05:07:04;;;;;;;13.40;5.25;;;19.80;71.70;;;;;;5089498;28;20028;-75
2023/07/11 05:09:30;;;;;;;15.63;5.28;;;19.90;71.70;;;;;;5109056;27;20031;-76
2023/07/11 05:11:56;;;;;;;13.50;5.25;;;19.90;71.70;;;;;;5107410;27;20129;-75
2023/07/11 05:14:23;;;;;;;14.15;5.20;;;19.90;71.40;;;;;;5107835;28;20095;-75
2023/07/11 05:16:48;;;;;;;11.90;5.18;;;20.00;71.20;;;;;;5107099;27;20036;-75
2023/07/11 05:19:14;;;;;;;11.18;4.95;;;20.00;71.10;;;;;;5100639;28;20034;-75
2023/07/11 05:21:39;;;;;;;11.00;4.47;;;20.50;70.10;;;;;;5105674;28;20046;-74
2023/07/11 05:24:06;;;;;;;11.52;4.53;;;21.90;65.80;;;;;;5107691;28;20047;-75
2023/07/11 05:26:32;;;;;;;9.32;4.30;;;23.40;60.10;;;;;;5106312;28;20032;-75
2023/07/11 05:28:58;;;;;;;10.65;3.80;;;24.80;55.70;;;;;;5125895;27;20024;-76
2023/07/11 05:31:24;;;;;;;12.10;4.28;;;25.80;53.30;;;;;;5087940;28;20043;-75
2023/07/11 05:33:53;;;;;;;8.65;3.47;;;26.50;50.50;;;;;;5107213;28;20024;-76
2023/07/11 05:36:35;;;;;;;10.13;3.83;;;27.20;49.50;;;;;;5107297;28;20019;-75
2023/07/11 05:39:16;;;;;;;12.32;3.83;;;27.60;48.00;;;;;;5107289;28;20024;-75
2023/07/11 05:41:47;;;;;;;13.90;4.40;;;28.00;46.90;;;;;;5106288;27;20481;-75
2023/07/11 05:44:13;;;;;;;10.63;3.50;;;28.30;45.50;;;;;;5106949;28;20031;-76
2023/07/11 05:46:39;;;;;;;10.95;3.92;;;28.20;45.50;;;;;;5106229;27;20032;-75
2023/07/11 05:49:06;;;;;;;11.48;3.45;;;28.40;45.40;;;;;;5106784;28;20018;-75
2023/07/11 05:51:31;;;;;;;9.68;4.18;;;28.70;44.80;;;;;;5106273;27;20031;-75
2023/07/11 05:53:57;;;;;;;15.18;4.15;;;28.60;44.60;;;;;;5106282;27;20592;-76
2023/07/11 05:56:24;;;;;;;12.05;3.90;;;28.50;44.90;;;;;;5095194;28;20524;-74
2023/07/11 05:58:51;;;;;;;9.07;3.55;;;28.00;45.80;;;;;;5106354;28;20023;-74
2023/07/11 06:01:20;;;;;;;11.00;3.90;;;27.10;47.90;;;;;;5106767;28;20047;-74
2023/07/11 06:03:48;;;;;;;10.60;3.50;;;25.90;50.60;;;;;;5102125;28;20020;-74
2023/07/11 06:06:15;;;;;;;13.18;3.67;;;24.80;53.60;;;;;;5105732;28;20034;-74
2023/07/11 06:08:41;;;;;;;10.38;3.92;;;23.90;56.10;;;;;;5105723;28;20024;-74
2023/07/11 06:11:07;;;;;;;9.98;4.00;;;23.30;58.00;;;;;;5106113;28;20046;-75
2023/07/11 06:13:35;;;;;;;10.00;3.90;;;23.00;59.40;;;;;;5106314;28;20111;-74
2023/07/11 06:16:05;;;;;;;12.25;3.75;;;23.00;60.00;;;;;;5105552;27;20035;-75
2023/07/11 06:18:34;;;;;;;10.90;3.92;;;23.00;60.30;;;;;;5106877;28;20035;-75
2023/07/11 06:21:00;;;;;;;10.52;4.28;;;23.10;60.00;;;;;;5106296;27;20144;-74
2023/07/11 06:23:25;;;;;;;14.05;4.35;;;23.00;60.50;;;;;;5088856;28;20454;-74
2023/07/11 06:25:51;;;;;;;14.65;4.13;;;23.00;60.90;;;;;;5105823;28;20027;-74
2023/07/11 06:28:17;;;;;;;10.57;3.88;;;23.20;60.60;;;;;;5106166;28;20011;-74
2023/07/11 06:30:43;;;;;;;13.88;4.32;;;23.30;60.30;;;;;;5081976;28;20441;-74
2023/07/11 06:33:10;;;;;;;45.15;9.02;;;23.50;59.40;;;;;;5088000;28;20074;-74
2023/07/11 06:35:37;;;;;;;11.48;4.07;;;23.60;59.40;;;;;;5085306;28;20469;-74
2023/07/11 06:38:03;;;;;;;11.45;3.85;;;23.60;59.70;;;;;;5086995;28;20399;-74
2023/07/11 06:40:29;;;;;;;9.05;3.85;;;23.80;59.30;;;;;;5087288;28;20024;-74
2023/07/11 06:42:55;;;;;;;11.45;3.85;;;23.90;59.40;;;;;;5086314;28;20043;-74
2023/07/11 06:45:20;;;;;;;11.00;3.70;;;24.00;58.90;;;;;;5085201;28;20055;-73
2023/07/11 06:47:46;;;;;;;13.60;3.70;;;24.10;58.70;;;;;;5085839;28;20035;-74
2023/07/11 06:50:12;;;;;;;7.80;3.47;;;24.10;58.00;;;;;;5084406;28;20016;-74
2023/07/11 06:52:39;;;;;;;9.38;3.58;;;24.20;57.80;;;;;;5085953;28;20122;-74
2023/07/11 06:55:05;;;;;;;12.70;4.40;;;24.40;58.10;;;;;;5084440;28;20107;-74
2023/07/11 06:57:31;;;;;;;9.93;3.70;;;24.40;57.50;;;;;;5085601;28;20085;-74
2023/07/11 06:59:56;;;;;;;10.10;3.83;;;24.50;57.40;;;;;;5083300;28;20028;-75
2023/07/11 07:02:22;;;;;;;11.60;3.75;;;24.50;57.10;;;;;;5085217;28;20040;-75
2023/07/11 07:04:47;;;;;;;10.85;4.30;;;24.60;57.40;;;;;;5085713;28;20421;-75
2023/07/11 07:07:13;;;;;;;9.20;3.63;;;24.80;56.60;;;;;;5085266;28;20062;-75
2023/07/11 07:09:39;;;;;;;11.00;3.70;;;24.90;56.50;;;;;;5085328;28;20023;-76
2023/07/11 07:12:05;;;;;;;8.27;3.28;;;25.00;56.70;;;;;;5084437;28;20040;-75
2023/07/11 07:14:31;;;;;;;12.95;3.95;;;25.10;55.80;;;;;;5085397;28;20505;-75
2023/07/11 07:16:57;;;;;;;10.70;4.07;;;25.20;55.30;;;;;;5084757;28;20111;-75
2023/07/11 07:19:22;;;;;;;13.93;3.80;;;25.40;55.00;;;;;;5085785;28;20032;-75
2023/07/11 07:21:48;;;;;;;16.13;4.07;;;25.50;54.70;;;;;;5082963;28;20829;-75
2023/07/11 07:24:13;;;;;;;7.90;3.28;;;25.70;54.20;;;;;;5089747;28;20122;-74
2023/07/11 07:26:41;;;;;;;10.23;3.42;;;25.90;53.80;;;;;;5086893;28;20077;-74
2023/07/11 07:29:06;;;;;;;7.13;2.97;;;26.00;53.60;;;;;;5089808;28;20016;-74
2023/07/11 07:31:32;;;;;;;7.45;2.63;;;26.10;53.20;;;;;;5078377;28;20049;-75
2023/07/11 07:33:58;;;;;;;9.07;2.97;;;26.10;53.50;;;;;;5078710;28;20116;-75
2023/07/11 07:36:23;;;;;;;8.05;3.03;;;26.20;53.60;;;;;;5085942;28;20485;-75
2023/07/11 07:38:49;;;;;;;10.45;2.95;;;26.40;53.70;;;;;;5076630;28;20056;-74
2023/07/11 07:41:15;;;;;;;8.13;2.80;;;26.40;52.40;;;;;;5076982;28;20039;-75
2023/07/11 07:43:43;;;;;;;12.40;3.00;;;26.50;51.90;;;;;;5070650;28;20411;-74
2023/07/11 07:46:16;;;;;;;7.35;2.75;;;26.50;51.90;;;;;;5075541;28;20114;-74
2023/07/11 07:48:41;;;;;;;7.17;2.40;;;26.60;52.20;;;;;;5072889;28;20469;-74
2023/07/11 07:51:16;;;;;;;6.53;2.38;;;26.60;51.30;;;;;;5071944;28;20063;-74
2023/07/11 07:53:42;;;;;;;8.13;2.30;;;26.60;51.70;;;;;;5068339;28;20086;-74
2023/07/11 07:56:11;;;;;;;8.15;2.63;;;26.70;51.70;;;;;;5076546;28;20039;-74
2023/07/11 07:58:37;;;;;;;8.07;2.47;;;26.80;51.10;;;;;;5077118;28;20492;-74
2023/07/11 08:01:04;;;;;;;6.85;2.30;;;27.10;50.80;;;;;;5071760;28;20043;-74
2023/07/11 08:03:30;;;;;;;6.65;2.60;;;27.30;50.20;;;;;;5114913;27;20420;-75
2023/07/11 08:05:57;;;;;;;5.90;2.50;;;27.50;50.30;;;;;;5064988;28;20055;-76
2023/07/11 08:08:23;;;;;;;8.95;2.80;;;27.70;49.20;;;;;;5067245;28;20035;-74
2023/07/11 08:10:49;;;;;;;5.25;2.22;;;27.50;49.30;;;;;;5075517;28;20032;-74
2023/07/11 08:13:14;;;;;;;6.28;2.38;;;27.60;49.40;;;;;;5081726;28;20035;-74
2023/07/11 08:15:42;;;;;;;13.10;2.80;;;27.80;48.20;;;;;;5075101;28;20035;-75
2023/07/11 08:18:08;;;;;;;6.53;2.63;;;28.00;48.70;;;;;;5068657;28;20024;-74
2023/07/11 08:20:34;;;;;;;7.03;2.58;;;28.30;48.80;;;;;;5066934;28;20082;-75
2023/07/11 08:22:59;;;;;;;7.20;2.50;;;28.20;49.20;;;;;;5061816;28;20036;-75
2023/07/11 08:25:25;;;;;;;8.00;2.47;;;28.30;48.30;;;;;;5073085;28;20476;-75
2023/07/11 08:27:51;;;;;;;8.10;2.38;;;28.50;48.20;;;;;;5074024;28;20048;-75
2023/07/11 08:30:17;;;;;;;8.50;2.80;;;28.50;47.10;;;;;;5082010;27;20434;-75
2023/07/11 08:32:43;;;;;;;9.95;3.03;;;28.30;48.10;;;;;;5107166;28;20039;-75
2023/07/11 08:35:09;;;;;;;8.57;2.80;;;28.50;47.50;;;;;;5108035;27;20064;-75
2023/07/11 08:37:34;;;;;;;9.13;3.00;;;28.70;47.10;;;;;;5108280;28;20047;-75
2023/07/11 08:40:01;;;;;;;8.60;3.30;;;28.60;47.40;;;;;;5102167;28;20050;-74
2023/07/11 08:42:40;;;;;;;7.72;3.35;;;28.60;47.60;;;;;;5103003;28;20076;-74
2023/07/11 08:45:26;;;;;;;6.18;2.80;;;28.30;47.90;;;;;;5097123;28;20024;-74
2023/07/11 08:48:00;;;;;;;8.05;3.05;;;28.60;48.40;;;;;;5107682;28;20043;-74
2023/07/11 08:50:32;;;;;;;8.05;2.65;;;28.90;46.90;;;;;;5108015;28;20062;-74
2023/07/11 08:53:09;;;;;;;8.95;2.78;;;28.90;47.10;;;;;;5114195;27;20032;-74
2023/07/11 08:55:41;;;;;;;10.38;3.00;;;28.90;47.40;;;;;;5080871;28;20035;-75
2023/07/11 08:58:15;;;;;;;7.93;3.10;;;28.80;46.80;;;;;;5096203;28;20012;-74
2023/07/11 09:00:43;;;;;;;;;;;28.80;46.60;;;;;;5100555;27;20063;-75
2023/07/11 09:03:27;;;;;;;10.25;3.30;;;28.50;47.50;;;;;;5094447;28;20276;-75
2023/07/11 09:05:52;;;;;;;;;;;28.50;47.10;;;;;;5107976;27;20488;-74
2023/07/11 09:08:20;;;;;;;8.45;2.85;;;28.30;47.90;;;;;;5108286;28;19908;-75
2023/07/11 09:11:11;;;;;;;8.35;3.05;;;28.30;47.70;;;;;;5106454;28;20028;-74
2023/07/11 09:13:55;;;;;;;9.23;3.42;;;28.50;48.00;;;;;;5088861;28;20034;-74
2023/07/11 09:16:36;;;;;;;9.80;3.90;;;28.90;47.20;;;;;;5107642;28;20185;-74
2023/07/11 09:19:25;;;;;;;7.82;2.75;;;29.10;46.60;;;;;;5107973;28;20059;-75
2023/07/11 09:22:08;;;;;;;8.73;2.65;;;29.40;46.40;;;;;;5106868;28;20540;-75
2023/07/11 09:24:55;;;;;;;7.88;3.05;;;29.70;46.60;;;;;;5088472;28;20435;-75
2023/07/11 09:27:32;;;;;;;10.40;3.30;;;29.90;45.60;;;;;;5103588;28;20027;-75
2023/07/11 09:29:59;;;;;;;10.88;3.17;;;29.90;44.20;;;;;;5110415;27;20407;-75
2023/07/11 09:32:33;;;;;;;12.10;4.97;;;29.80;44.00;;;;;;5107743;28;20032;-74
2023/07/11 09:35:26;;;;;;;9.75;3.30;;;29.80;44.00;;;;;;5107012;27;20388;-75
2023/07/11 09:38:07;;;;;;;7.38;3.03;;;29.60;43.80;;;;;;5086023;28;20050;-75
2023/07/11 09:40:42;;;;;;;6.90;3.05;;;29.50;44.60;;;;;;5069762;28;20111;-75
2023/07/11 09:43:09;;;;;;;8.60;3.50;;;29.60;44.60;;;;;;5081988;28;20165;-74
2023/07/11 09:45:38;;;;;;;8.10;3.00;;;29.50;44.60;;;;;;5105786;28;20066;-76
2023/07/11 09:48:06;;;;;;;9.20;3.03;;;29.30;44.60;;;;;;5088831;28;20030;-76
2023/07/11 09:51:02;;;;;;;7.88;2.92;;;29.30;45.60;;;;;;5106753;27;20039;-75
2023/07/11 09:53:30;;;;;;;7.25;2.92;;;29.30;45.00;;;;;;5103139;28;20028;-75
2023/07/11 09:56:16;;;;;;;7.82;3.10;;;29.40;44.60;;;;;;5105723;28;20028;-75
2023/07/11 09:58:48;;;;;;;9.23;3.35;;;29.80;44.00;;;;;;5107548;28;20015;-75
2023/07/11 10:01:26;;;;;;;6.90;2.72;;;30.00;44.40;;;;;;5106315;28;20042;-74
2023/07/11 10:03:57;;;;;;;8.30;2.90;;;30.00;43.50;;;;;;5099970;28;20027;-75
2023/07/11 10:06:33;;;;;;;9.15;3.40;;;30.30;43.70;;;;;;5101050;28;20031;-75
2023/07/11 10:09:10;;;;;;;8.57;2.75;;;30.50;43.00;;;;;;5106624;28;20456;-75
2023/07/11 10:11:36;;;;;;;7.93;3.47;;;30.50;43.50;;;;;;5088296;28;20039;-75
2023/07/11 10:14:02;;;;;;;13.50;3.30;;;30.30;42.70;;;;;;5080282;28;20035;-75
2023/07/11 10:16:33;;;;;;;6.78;2.90;;;30.60;42.70;;;;;;5086889;27;20541;-75
2023/07/11 10:18:59;;;;;;;7.45;2.70;;;30.80;42.20;;;;;;5106387;27;20019;-76
2023/07/11 10:21:27;;;;;;;10.85;3.33;;;30.80;42.10;;;;;;5106495;28;20081;-75
2023/07/11 10:23:54;;;;;;;7.97;2.90;;;31.10;41.20;;;;;;5105859;28;20027;-74
2023/07/11 10:26:22;;;;;;;9.60;2.90;;;31.00;42.00;;;;;;5088441;28;20039;-75
2023/07/11 10:29:10;;;;;;;7.97;2.80;;;31.20;41.70;;;;;;5105795;28;20020;-75
2023/07/11 10:31:43;;;;;;;28.30;5.40;;;31.40;41.60;;;;;;5099899;27;20047;-75
2023/07/11 10:34:44;;;;;;;7.57;2.60;;;31.30;41.40;;;;;;5106252;28;20415;-75
2023/07/11 10:37:18;;;;;;;4.78;2.53;;;31.00;41.50;;;;;;5068514;28;20039;-75
2023/07/11 10:39:51;;;;;;;6.97;2.92;;;31.20;40.90;;;;;;5105917;28;20039;-75
2023/07/11 10:42:38;;;;;;;5.93;2.65;;;31.40;40.90;;;;;;5106003;27;20028;-76
2023/07/11 10:45:20;;;;;;;6.95;3.10;;;31.50;40.80;;;;;;5097867;28;20263;-76
2023/07/11 10:48:04;;;;;;;10.02;2.53;;;31.00;40.80;;;;;;5101991;28;20519;-75
2023/07/11 10:50:44;;;;;;;4.70;2.40;;;31.10;40.90;;;;;;5099847;27;21796;-75
2023/07/11 10:53:22;;;;;;;6.72;2.53;;;31.50;40.80;;;;;;5083835;28;20418;-75
2023/07/11 10:56:10;;;;;;;7.45;3.00;;;31.60;40.40;;;;;;5109444;27;20028;-74
2023/07/11 10:58:36;;;;;;;5.80;2.70;;;31.50;40.50;;;;;;5103984;28;20415;-75
2023/07/11 11:01:51;;;;;;;6.47;2.42;;;31.40;40.40;;;;;;5102167;28;20055;-74
2023/07/11 11:04:16;;;;;;;;;;;31.40;40.70;;;;;;5072169;28;20050;-74
2023/07/11 11:07:05;;;;;;;7.00;2.35;;;31.10;42.20;;;;;;5106672;28;19907;-76
2023/07/11 11:09:45;;;;;;;11.52;3.60;;;30.60;43.50;;;;;;5105837;28;20141;-75
2023/07/11 11:12:37;;;;;;;6.07;2.70;;;30.40;43.60;;;;;;5104927;28;20047;-75
2023/07/11 11:15:47;;;;;;;7.15;2.35;;;30.40;43.80;;;;;;5104913;28;20076;-75
2023/07/11 11:18:31;;;;;;;8.90;2.30;;;30.20;44.20;;;;;;5075929;28;20035;-75
2023/07/11 11:21:16;;;;;;;5.97;2.42;;;30.30;44.00;;;;;;5100145;28;20043;-73
2023/07/11 11:24:17;;;;;;;7.05;2.70;;;31.00;43.40;;;;;;5105045;28;20012;-73
2023/07/11 11:26:46;;;;;;;6.63;2.50;;;31.00;42.80;;;;;;5101062;27;20084;-75
2023/07/11 11:29:17;;;;;;;6.22;2.00;;;31.20;42.10;;;;;;5106408;28;20107;-75
2023/07/11 11:32:02;;;;;;;8.27;2.42;;;31.30;42.30;;;;;;5105349;28;20048;-76
2023/07/11 11:34:28;;;;;;;7.00;2.33;;;31.50;40.80;;;;;;5103946;28;20043;-76
2023/07/11 11:37:09;;;;;;;7.07;2.58;;;32.00;40.20;;;;;;5086445;28;20036;-75
2023/07/11 11:39:41;;;;;;;5.70;2.10;;;32.10;40.40;;;;;;5099722;28;20027;-75
2023/07/11 11:42:19;;;;;;;6.13;2.13;;;32.30;40.80;;;;;;5105151;27;20032;-75
2023/07/11 11:44:57;;;;;;;8.95;2.50;;;32.30;40.60;;;;;;5105262;28;20099;-74
2023/07/11 11:47:23;;;;;;;5.25;2.15;;;32.20;39.80;;;;;;5086165;28;20050;-74
2023/07/11 11:49:50;;;;;;;7.88;2.75;;;32.40;40.30;;;;;;5105866;28;20553;-74
2023/07/11 11:52:15;;;;;;;6.57;2.17;;;32.60;39.90;;;;;;5104902;27;20046;-74
2023/07/11 11:54:47;;;;;;;7.32;2.78;;;32.50;39.50;;;;;;5105088;28;20027;-74
2023/07/11 11:57:28;;;;;;;5.38;2.30;;;32.30;39.70;;;;;;5104747;28;20476;-75
2023/07/11 11:59:54;;;;;;;8.05;2.55;;;32.20;39.70;;;;;;5105973;28;20287;-75
2023/07/11 12:02:32;;;;;;;7.25;3.42;;;32.50;39.70;;;;;;5104733;28;20079;-75
2023/07/11 12:05:15;;;;;;;7.70;2.95;;;32.80;39.30;;;;;;5105125;28;20031;-75
2023/07/11 12:07:42;;;;;;;7.20;2.47;;;32.90;38.90;;;;;;5105927;28;20027;-74
2023/07/11 12:10:22;;;;;;;5.03;2.00;;;32.90;39.10;;;;;;5108837;28;20016;-75
2023/07/11 12:13:15;;;;;;;6.75;1.80;;;32.20;40.60;;;;;;5108082;28;20041;-75
2023/07/11 12:15:46;;;;;;;6.15;1.90;;;32.00;41.30;;;;;;5107979;27;20141;-75
2023/07/11 12:18:41;;;;;;;4.82;1.90;;;31.70;42.40;;;;;;5108620;28;20019;-75
2023/07/11 12:21:13;;;;;;;4.22;2.10;;;31.60;42.90;;;;;;5102415;28;20027;-75
2023/07/11 12:23:47;;;;;;;6.63;2.90;;;31.70;41.50;;;;;;5107981;27;20055;-76
2023/07/11 12:26:20;;;;;;;4.30;1.73;;;31.70;41.60;;;;;;5107961;27;20032;-75
2023/07/11 12:28:47;;;;;;;5.60;2.00;;;31.90;42.20;;;;;;5109631;27;20027;-76
2023/07/11 12:31:24;;;;;;;3.90;1.70;;;32.00;42.50;;;;;;5115349;27;20036;-76
2023/07/11 12:34:02;;;;;;;5.95;1.60;;;32.10;42.50;;;;;;5108292;28;20126;-76
2023/07/11 12:36:49;;;;;;;4.82;1.98;;;31.80;42.90;;;;;;5099735;28;20107;-75
2023/07/11 12:39:22;;;;;;;9.82;4.50;;;31.80;42.80;;;;;;5090341;28;20408;-76
2023/07/11 12:42:03;;;;;;;4.85;2.38;;;31.60;42.00;;;;;;5106809;27;20038;-75
2023/07/11 12:44:33;;;;;;;6.13;2.58;;;31.70;42.10;;;;;;5108771;28;20027;-75
2023/07/11 12:47:04;;;;;;;4.78;1.95;;;31.90;42.10;;;;;;5093387;27;20062;-76
2023/07/11 12:49:30;;;;;;;4.32;1.80;;;32.10;41.20;;;;;;5108068;28;20050;-76
2023/07/11 12:52:04;;;;;;;4.00;1.50;;;32.40;40.90;;;;;;5095123;27;20799;-75
2023/07/11 12:54:30;;;;;;;3.22;1.63;;;32.60;40.90;;;;;;5107594;28;20469;-74
2023/07/11 12:56:56;;;;;;;3.83;1.80;;;32.60;40.20;;;;;;5108296;28;20481;-74